sensor_id;sensor_type;location;lat;lon;timestamp;pressure;altitude;pressure_sealevel;temperature;humidity
163;BME280;3946;48.958;8.284;2023-09-30T00:00:24;101312.84;;;17.57;100.00
163;BME280;3946;48.958;8.284;2023-09-30T00:03:10;101319.63;;;17.48;100.00
163;BME280;3946;48.958;8.284;2023-09-30T00:05:57;101319.13;;;17.43;100.00
163;BME280;3946;48.958;8.284;2023-09-30T00:08:42;101315.09;;;17.39;100.00
163;BME280;3946;48.958;8.284;2023-09-30T00:11:27;101309.38;;;17.34;100.00
163;BME280;3946;48.958;8.284;2023-09-30T00:14:12;101316.41;;;17.34;100.00
163;BME280;3946;48.958;8.284;2023-09-30T00:16:57;101317.25;;;17.34;100.00
163;BME280;3946;48.958;8.284;2023-09-30T00:19:43;101316.41;;;17.34;100.00
163;BME280;3946;48.958;8.284;2023-09-30T00:22:30;101334.47;;;17.26;100.00
163;BME280;3946;48.958;8.284;2023-09-30T00:25:16;101326.72;;;17.24;100.00
163;BME280;3946;48.958;8.284;2023-09-30T00:28:01;101326.16;;;17.21;100.00
163;BME280;3946;48.958;8.284;2023-09-30T00:30:46;101332.09;;;17.23;100.00
163;BME280;3946;48.958;8.284;2023-09-30T00:33:31;101331.03;;;17.25;100.00
163;BME280;3946;48.958;8.284;2023-09-30T00:36:17;101330.09;;;17.37;100.00
163;BME280;3946;48.958;8.284;2023-09-30T00:39:04;101330.09;;;17.37;100.00
163;BME280;3946;48.958;8.284;2023-09-30T00:41:49;101327.34;;;17.39;100.00
163;BME280;3946;48.958;8.284;2023-09-30T00:44:34;101329.63;;;17.32;100.00
163;BME280;3946;48.958;8.284;2023-09-30T00:47:19;101324.59;;;17.29;100.00
163;BME280;3946;48.958;8.284;2023-09-30T00:50:05;101323.44;;;17.33;100.00
163;BME280;3946;48.958;8.284;2023-09-30T00:52:52;101323.66;;;17.30;100.00
163;BME280;3946;48.958;8.284;2023-09-30T00:55:39;101322.09;;;17.39;100.00
163;BME280;3946;48.958;8.284;2023-09-30T00:58:24;101320.94;;;17.32;100.00
163;BME280;3946;48.958;8.284;2023-09-30T01:01:12;101320.31;;;17.28;100.00
163;BME280;3946;48.958;8.284;2023-09-30T01:03:57;101327.44;;;17.15;100.00
163;BME280;3946;48.958;8.284;2023-09-30T01:06:42;101332.41;;;17.07;100.00
163;BME280;3946;48.958;8.284;2023-09-30T01:09:27;101344.31;;;17.00;100.00
163;BME280;3946;48.958;8.284;2023-09-30T01:12:14;101328.31;;;16.92;100.00
163;BME280;3946;48.958;8.284;2023-09-30T01:14:59;101334.88;;;16.86;100.00
163;BME280;3946;48.958;8.284;2023-09-30T01:17:44;101336.16;;;16.81;100.00
163;BME280;3946;48.958;8.284;2023-09-30T01:20:29;101330.63;;;16.72;100.00
163;BME280;3946;48.958;8.284;2023-09-30T01:23:16;101328.25;;;16.69;100.00
163;BME280;3946;48.958;8.284;2023-09-30T01:26:02;101331.97;;;16.78;100.00
163;BME280;3946;48.958;8.284;2023-09-30T01:28:48;101336.47;;;16.76;100.00
163;BME280;3946;48.958;8.284;2023-09-30T01:31:34;101333.03;;;16.75;100.00
163;BME280;3946;48.958;8.284;2023-09-30T01:34:20;101346.13;;;16.75;100.00
163;BME280;3946;48.958;8.284;2023-09-30T01:37:05;101345.38;;;16.73;100.00
163;BME280;3946;48.958;8.284;2023-09-30T01:39:52;101346.47;;;16.71;100.00
163;BME280;3946;48.958;8.284;2023-09-30T01:42:38;101345.75;;;16.69;100.00
163;BME280;3946;48.958;8.284;2023-09-30T01:45:23;101351.56;;;16.72;100.00
163;BME280;3946;48.958;8.284;2023-09-30T01:48:08;101360.97;;;16.75;100.00
163;BME280;3946;48.958;8.284;2023-09-30T01:50:54;101347.66;;;16.78;100.00
163;BME280;3946;48.958;8.284;2023-09-30T01:53:43;101346.41;;;16.84;100.00
163;BME280;3946;48.958;8.284;2023-09-30T01:56:31;101357.41;;;17.00;100.00
163;BME280;3946;48.958;8.284;2023-09-30T01:59:16;101354.78;;;17.00;100.00
163;BME280;3946;48.958;8.284;2023-09-30T02:02:01;101350.31;;;16.89;100.00
163;BME280;3946;48.958;8.284;2023-09-30T02:04:48;101342.03;;;17.06;100.00
163;BME280;3946;48.958;8.284;2023-09-30T02:07:33;101340.63;;;17.02;100.00
163;BME280;3946;48.958;8.284;2023-09-30T02:10:18;101339.00;;;16.89;100.00
163;BME280;3946;48.958;8.284;2023-09-30T02:13:05;101342.31;;;16.79;100.00
163;BME280;3946;48.958;8.284;2023-09-30T02:15:50;101341.25;;;16.71;100.00
163;BME280;3946;48.958;8.284;2023-09-30T02:18:37;101350.34;;;16.65;100.00
163;BME280;3946;48.958;8.284;2023-09-30T02:21:21;101350.66;;;16.61;100.00
163;BME280;3946;48.958;8.284;2023-09-30T02:24:07;101345.06;;;16.54;100.00
163;BME280;3946;48.958;8.284;2023-09-30T02:26:52;101347.88;;;16.51;100.00
163;BME280;3946;48.958;8.284;2023-09-30T02:29:39;101340.88;;;16.52;100.00
163;BME280;3946;48.958;8.284;2023-09-30T02:32:24;101347.03;;;16.63;100.00
163;BME280;3946;48.958;8.284;2023-09-30T02:35:09;101359.41;;;16.49;100.00
163;BME280;3946;48.958;8.284;2023-09-30T02:37:55;101355.34;;;16.44;100.00
163;BME280;3946;48.958;8.284;2023-09-30T02:40:40;101348.88;;;16.37;100.00
163;BME280;3946;48.958;8.284;2023-09-30T02:43:29;101358.72;;;16.34;100.00
163;BME280;3946;48.958;8.284;2023-09-30T02:46:15;101358.53;;;16.24;100.00
163;BME280;3946;48.958;8.284;2023-09-30T02:49:00;101361.50;;;16.20;100.00
163;BME280;3946;48.958;8.284;2023-09-30T02:51:45;101360.88;;;16.16;100.00
163;BME280;3946;48.958;8.284;2023-09-30T02:54:30;101360.97;;;16.15;100.00
163;BME280;3946;48.958;8.284;2023-09-30T02:57:16;101365.47;;;16.13;100.00
163;BME280;3946;48.958;8.284;2023-09-30T03:00:01;101368.53;;;16.06;100.00
163;BME280;3946;48.958;8.284;2023-09-30T03:02:58;101373.97;;;16.03;100.00
163;BME280;3946;48.958;8.284;2023-09-30T03:05:44;101386.22;;;16.03;100.00
163;BME280;3946;48.958;8.284;2023-09-30T03:08:29;101392.38;;;16.02;100.00
163;BME280;3946;48.958;8.284;2023-09-30T03:11:14;101399.81;;;15.95;100.00
163;BME280;3946;48.958;8.284;2023-09-30T03:13:58;101393.75;;;15.95;100.00
163;BME280;3946;48.958;8.284;2023-09-30T03:16:43;101385.91;;;15.95;100.00
163;BME280;3946;48.958;8.284;2023-09-30T03:19:29;101393.00;;;15.93;100.00
163;BME280;3946;48.958;8.284;2023-09-30T03:22:14;101381.22;;;15.87;100.00
163;BME280;3946;48.958;8.284;2023-09-30T03:24:59;101375.34;;;15.84;100.00
163;BME280;3946;48.958;8.284;2023-09-30T03:27:44;101377.44;;;15.79;100.00
163;BME280;3946;48.958;8.284;2023-09-30T03:30:29;101367.19;;;15.75;100.00
163;BME280;3946;48.958;8.284;2023-09-30T03:33:14;101372.03;;;15.69;100.00
163;BME280;3946;48.958;8.284;2023-09-30T03:36:00;101376.41;;;15.68;100.00
163;BME280;3946;48.958;8.284;2023-09-30T03:38:47;101387.06;;;15.78;100.00
163;BME280;3946;48.958;8.284;2023-09-30T03:41:32;101384.56;;;15.77;100.00
163;BME280;3946;48.958;8.284;2023-09-30T03:44:19;101387.28;;;15.75;100.00
163;BME280;3946;48.958;8.284;2023-09-30T03:47:03;101387.88;;;16.04;100.00
163;BME280;3946;48.958;8.284;2023-09-30T03:49:48;101381.28;;;15.98;100.00
163;BME280;3946;48.958;8.284;2023-09-30T03:52:34;101387.69;;;15.94;100.00
163;BME280;3946;48.958;8.284;2023-09-30T03:55:19;101383.88;;;16.11;100.00
163;BME280;3946;48.958;8.284;2023-09-30T03:58:06;101384.66;;;16.00;100.00
163;BME280;3946;48.958;8.284;2023-09-30T04:00:51;101385.13;;;16.18;100.00
163;BME280;3946;48.958;8.284;2023-09-30T04:03:37;101387.44;;;16.10;100.00
163;BME280;3946;48.958;8.284;2023-09-30T04:06:23;101384.94;;;16.21;100.00
163;BME280;3946;48.958;8.284;2023-09-30T04:09:09;101383.91;;;15.98;100.00
163;BME280;3946;48.958;8.284;2023-09-30T04:11:54;101394.28;;;16.00;100.00
163;BME280;3946;48.958;8.284;2023-09-30T04:14:40;101405.13;;;15.94;100.00
163;BME280;3946;48.958;8.284;2023-09-30T04:17:25;101403.16;;;15.97;100.00
163;BME280;3946;48.958;8.284;2023-09-30T04:20:10;101400.16;;;16.27;100.00
163;BME280;3946;48.958;8.284;2023-09-30T04:23:00;101395.38;;;16.08;100.00
163;BME280;3946;48.958;8.284;2023-09-30T04:25:47;101405.63;;;16.12;100.00
163;BME280;3946;48.958;8.284;2023-09-30T04:28:33;101411.19;;;15.94;100.00
163;BME280;3946;48.958;8.284;2023-09-30T04:31:18;101413.91;;;15.93;100.00
163;BME280;3946;48.958;8.284;2023-09-30T04:34:03;101418.81;;;16.23;100.00
163;BME280;3946;48.958;8.284;2023-09-30T04:36:48;101424.78;;;16.12;100.00
163;BME280;3946;48.958;8.284;2023-09-30T04:39:33;101418.94;;;15.96;100.00
163;BME280;3946;48.958;8.284;2023-09-30T04:42:21;101412.97;;;15.94;100.00
163;BME280;3946;48.958;8.284;2023-09-30T04:45:09;101413.72;;;15.96;100.00
163;BME280;3946;48.958;8.284;2023-09-30T04:47:55;101425.94;;;15.95;100.00
163;BME280;3946;48.958;8.284;2023-09-30T04:50:41;101429.09;;;16.00;100.00
163;BME280;3946;48.958;8.284;2023-09-30T04:53:26;101423.22;;;16.09;100.00
163;BME280;3946;48.958;8.284;2023-09-30T04:56:11;101424.78;;;15.99;100.00
163;BME280;3946;48.958;8.284;2023-09-30T04:58:57;101422.72;;;16.04;100.00
163;BME280;3946;48.958;8.284;2023-09-30T05:01:42;101406.41;;;15.88;100.00
163;BME280;3946;48.958;8.284;2023-09-30T05:04:27;101408.16;;;15.75;100.00
163;BME280;3946;48.958;8.284;2023-09-30T05:07:13;101405.38;;;15.65;100.00
163;BME280;3946;48.958;8.284;2023-09-30T05:09:58;101412.34;;;15.52;100.00
163;BME280;3946;48.958;8.284;2023-09-30T05:12:44;101416.06;;;15.35;100.00
163;BME280;3946;48.958;8.284;2023-09-30T05:15:31;101420.94;;;15.27;100.00
163;BME280;3946;48.958;8.284;2023-09-30T05:18:19;101425.50;;;15.11;100.00
163;BME280;3946;48.958;8.284;2023-09-30T05:21:04;101419.44;;;15.11;100.00
163;BME280;3946;48.958;8.284;2023-09-30T05:23:50;101433.31;;;14.98;100.00
163;BME280;3946;48.958;8.284;2023-09-30T05:26:36;101436.31;;;15.19;100.00
163;BME280;3946;48.958;8.284;2023-09-30T05:29:21;101425.69;;;15.35;100.00
163;BME280;3946;48.958;8.284;2023-09-30T05:32:08;101415.25;;;15.48;100.00
163;BME280;3946;48.958;8.284;2023-09-30T05:34:52;101419.63;;;15.47;100.00
163;BME280;3946;48.958;8.284;2023-09-30T05:37:39;101417.09;;;15.33;100.00
163;BME280;3946;48.958;8.284;2023-09-30T05:40:24;101419.84;;;15.44;100.00
163;BME280;3946;48.958;8.284;2023-09-30T05:43:10;101401.16;;;15.50;100.00
163;BME280;3946;48.958;8.284;2023-09-30T05:45:57;101402.63;;;15.42;100.00
163;BME280;3946;48.958;8.284;2023-09-30T05:48:43;101405.94;;;15.44;100.00
163;BME280;3946;48.958;8.284;2023-09-30T05:51:28;101411.69;;;15.49;100.00
163;BME280;3946;48.958;8.284;2023-09-30T05:54:14;101429.56;;;15.42;100.00
163;BME280;3946;48.958;8.284;2023-09-30T05:56:58;101431.53;;;15.26;100.00
163;BME280;3946;48.958;8.284;2023-09-30T05:59:44;101435.75;;;15.14;100.00
163;BME280;3946;48.958;8.284;2023-09-30T06:02:30;101449.84;;;15.12;100.00
163;BME280;3946;48.958;8.284;2023-09-30T06:05:17;101455.47;;;15.05;100.00
163;BME280;3946;48.958;8.284;2023-09-30T06:08:03;101455.72;;;15.28;100.00
163;BME280;3946;48.958;8.284;2023-09-30T06:10:48;101458.78;;;15.34;100.00
163;BME280;3946;48.958;8.284;2023-09-30T06:13:33;101448.75;;;15.68;100.00
163;BME280;3946;48.958;8.284;2023-09-30T06:16:18;101462.66;;;15.81;100.00
163;BME280;3946;48.958;8.284;2023-09-30T06:19:03;101468.50;;;15.72;100.00
163;BME280;3946;48.958;8.284;2023-09-30T06:21:50;101464.41;;;15.93;100.00
163;BME280;3946;48.958;8.284;2023-09-30T06:24:35;101471.13;;;15.85;100.00
163;BME280;3946;48.958;8.284;2023-09-30T06:27:20;101482.31;;;16.12;100.00
163;BME280;3946;48.958;8.284;2023-09-30T06:30:06;101472.38;;;16.17;100.00
163;BME280;3946;48.958;8.284;2023-09-30T06:32:53;101467.25;;;16.03;100.00
163;BME280;3946;48.958;8.284;2023-09-30T06:35:40;101461.81;;;16.19;100.00
163;BME280;3946;48.958;8.284;2023-09-30T06:38:35;101460.34;;;16.15;100.00
163;BME280;3946;48.958;8.284;2023-09-30T06:41:21;101459.59;;;16.25;100.00
163;BME280;3946;48.958;8.284;2023-09-30T06:44:06;101456.88;;;16.39;100.00
163;BME280;3946;48.958;8.284;2023-09-30T06:46:51;101451.69;;;16.51;100.00
163;BME280;3946;48.958;8.284;2023-09-30T06:49:38;101436.53;;;16.56;100.00
163;BME280;3946;48.958;8.284;2023-09-30T06:52:23;101437.13;;;16.59;100.00
163;BME280;3946;48.958;8.284;2023-09-30T06:55:10;101433.78;;;16.57;100.00
163;BME280;3946;48.958;8.284;2023-09-30T06:57:57;101448.66;;;16.69;100.00
163;BME280;3946;48.958;8.284;2023-09-30T07:00:42;101457.34;;;16.70;100.00
163;BME280;3946;48.958;8.284;2023-09-30T07:03:27;101463.88;;;16.88;99.47
163;BME280;3946;48.958;8.284;2023-09-30T07:06:12;101477.66;;;16.90;99.94
163;BME280;3946;48.958;8.284;2023-09-30T07:09:05;101479.84;;;16.96;99.45
163;BME280;3946;48.958;8.284;2023-09-30T07:11:52;101495.69;;;17.19;97.39
163;BME280;3946;48.958;8.284;2023-09-30T07:14:37;101494.22;;;17.14;97.00
163;BME280;3946;48.958;8.284;2023-09-30T07:17:22;101485.47;;;17.27;96.46
163;BME280;3946;48.958;8.284;2023-09-30T07:20:07;101474.06;;;17.39;95.45
163;BME280;3946;48.958;8.284;2023-09-30T07:22:53;101473.19;;;17.27;95.23
163;BME280;3946;48.958;8.284;2023-09-30T07:25:38;101491.75;;;17.24;95.26
163;BME280;3946;48.958;8.284;2023-09-30T07:28:24;101496.38;;;17.44;93.90
163;BME280;3946;48.958;8.284;2023-09-30T07:31:10;101501.75;;;17.54;92.43
163;BME280;3946;48.958;8.284;2023-09-30T07:33:57;101496.06;;;17.60;90.88
163;BME280;3946;48.958;8.284;2023-09-30T07:36:42;101503.91;;;17.49;90.22
163;BME280;3946;48.958;8.284;2023-09-30T07:39:28;101487.34;;;17.48;90.54
163;BME280;3946;48.958;8.284;2023-09-30T07:42:13;101488.50;;;17.68;89.79
163;BME280;3946;48.958;8.284;2023-09-30T07:45:02;101491.88;;;17.81;89.32
163;BME280;3946;48.958;8.284;2023-09-30T07:47:47;101484.63;;;18.07;89.17
163;BME280;3946;48.958;8.284;2023-09-30T07:50:33;101480.34;;;18.17;88.31
163;BME280;3946;48.958;8.284;2023-09-30T07:53:18;101481.41;;;17.93;87.92
163;BME280;3946;48.958;8.284;2023-09-30T07:56:03;101488.75;;;17.76;88.79
163;BME280;3946;48.958;8.284;2023-09-30T07:58:49;101482.59;;;18.00;88.08
163;BME280;3946;48.958;8.284;2023-09-30T08:01:35;101481.03;;;18.19;87.19
163;BME280;3946;48.958;8.284;2023-09-30T08:04:20;101488.56;;;18.24;86.95
163;BME280;3946;48.958;8.284;2023-09-30T08:07:05;101485.25;;;18.33;86.28
163;BME280;3946;48.958;8.284;2023-09-30T08:09:50;101492.75;;;18.27;86.41
163;BME280;3946;48.958;8.284;2023-09-30T08:12:35;101491.31;;;18.23;86.44
163;BME280;3946;48.958;8.284;2023-09-30T08:15:20;101484.88;;;18.38;86.90
163;BME280;3946;48.958;8.284;2023-09-30T08:18:07;101483.56;;;18.32;85.66
163;BME280;3946;48.958;8.284;2023-09-30T08:20:52;101484.88;;;18.38;86.45
163;BME280;3946;48.958;8.284;2023-09-30T08:23:37;101468.28;;;18.48;86.69
163;BME280;3946;48.958;8.284;2023-09-30T08:26:23;101463.38;;;18.55;85.46
163;BME280;3946;48.958;8.284;2023-09-30T08:29:08;101467.00;;;18.65;84.93
163;BME280;3946;48.958;8.284;2023-09-30T08:31:53;101467.66;;;18.56;84.59
163;BME280;3946;48.958;8.284;2023-09-30T08:34:40;101464.00;;;18.59;84.88
163;BME280;3946;48.958;8.284;2023-09-30T08:37:25;101469.34;;;18.79;84.22
163;BME280;3946;48.958;8.284;2023-09-30T08:40:10;101473.16;;;18.75;83.42
163;BME280;3946;48.958;8.284;2023-09-30T08:42:55;101480.75;;;18.90;83.53
163;BME280;3946;48.958;8.284;2023-09-30T08:45:40;101477.78;;;19.26;82.72
163;BME280;3946;48.958;8.284;2023-09-30T08:48:28;101478.72;;;19.25;81.63
163;BME280;3946;48.958;8.284;2023-09-30T08:51:17;101482.66;;;18.99;82.38
163;BME280;3946;48.958;8.284;2023-09-30T08:54:02;101483.81;;;19.06;83.25
163;BME280;3946;48.958;8.284;2023-09-30T08:56:49;101486.19;;;19.41;81.88
163;BME280;3946;48.958;8.284;2023-09-30T08:59:34;101483.16;;;19.56;81.16
163;BME280;3946;48.958;8.284;2023-09-30T09:02:20;101483.16;;;19.56;80.48
163;BME280;3946;48.958;8.284;2023-09-30T09:05:05;101480.31;;;19.69;80.32
163;BME280;3946;48.958;8.284;2023-09-30T09:07:52;101476.59;;;19.72;80.36
163;BME280;3946;48.958;8.284;2023-09-30T09:10:44;101467.69;;;19.84;79.71
163;BME280;3946;48.958;8.284;2023-09-30T09:13:48;101470.97;;;19.76;79.48
163;BME280;3946;48.958;8.284;2023-09-30T09:16:34;101465.28;;;20.02;79.66
163;BME280;3946;48.958;8.284;2023-09-30T09:19:19;101461.88;;;20.11;77.46
163;BME280;3946;48.958;8.284;2023-09-30T09:22:05;101456.50;;;20.22;77.02
163;BME280;3946;48.958;8.284;2023-09-30T09:24:51;101467.31;;;19.68;78.90
163;BME280;3946;48.958;8.284;2023-09-30T09:27:37;101457.16;;;19.84;79.27
163;BME280;3946;48.958;8.284;2023-09-30T09:30:23;101457.56;;;20.10;78.40
163;BME280;3946;48.958;8.284;2023-09-30T09:33:08;101452.94;;;20.33;77.52
163;BME280;3946;48.958;8.284;2023-09-30T09:35:53;101461.06;;;20.50;77.39
163;BME280;3946;48.958;8.284;2023-09-30T09:38:43;101438.78;;;20.64;76.40
163;BME280;3946;48.958;8.284;2023-09-30T09:41:30;101445.88;;;20.83;75.79
163;BME280;3946;48.958;8.284;2023-09-30T09:44:17;101436.00;;;20.66;74.76
163;BME280;3946;48.958;8.284;2023-09-30T09:47:04;101447.50;;;20.55;75.59
163;BME280;3946;48.958;8.284;2023-09-30T09:49:51;101445.84;;;20.64;74.56
163;BME280;3946;48.958;8.284;2023-09-30T09:52:36;101449.06;;;20.77;74.91
163;BME280;3946;48.958;8.284;2023-09-30T09:55:22;101448.91;;;20.59;75.33
163;BME280;3946;48.958;8.284;2023-09-30T09:58:09;101460.00;;;20.72;76.15
163;BME280;3946;48.958;8.284;2023-09-30T10:00:55;101452.66;;;20.95;74.41
163;BME280;3946;48.958;8.284;2023-09-30T10:03:40;101435.63;;;21.18;72.59
163;BME280;3946;48.958;8.284;2023-09-30T10:06:26;101445.34;;;21.08;72.65
163;BME280;3946;48.958;8.284;2023-09-30T10:09:11;101442.84;;;21.07;73.44
163;BME280;3946;48.958;8.284;2023-09-30T10:11:58;101432.28;;;21.16;72.44
163;BME280;3946;48.958;8.284;2023-09-30T10:14:45;101425.50;;;21.33;72.07
163;BME280;3946;48.958;8.284;2023-09-30T10:20:31;101431.44;;;21.16;71.74
163;BME280;3946;48.958;8.284;2023-09-30T10:23:17;101429.94;;;21.13;71.95
163;BME280;3946;48.958;8.284;2023-09-30T10:26:15;101432.16;;;20.99;71.76
163;BME280;3946;48.958;8.284;2023-09-30T10:29:08;101436.44;;;20.71;74.04
163;BME280;3946;48.958;8.284;2023-09-30T10:31:55;101429.13;;;21.42;72.79
163;BME280;3946;48.958;8.284;2023-09-30T10:34:39;101422.84;;;21.52;71.99
163;BME280;3946;48.958;8.284;2023-09-30T10:37:32;101407.56;;;21.46;71.17
163;BME280;3946;48.958;8.284;2023-09-30T10:40:25;101427.31;;;21.33;72.51
163;BME280;3946;48.958;8.284;2023-09-30T10:43:20;101422.03;;;21.33;73.84
163;BME280;3946;48.958;8.284;2023-09-30T10:46:32;101404.97;;;21.08;72.23
163;BME280;3946;48.958;8.284;2023-09-30T10:49:31;101419.94;;;21.55;72.43
163;BME280;3946;48.958;8.284;2023-09-30T10:52:21;101404.19;;;21.73;71.25
163;BME280;3946;48.958;8.284;2023-09-30T10:55:06;101401.56;;;21.73;71.02
163;BME280;3946;48.958;8.284;2023-09-30T10:57:53;101401.66;;;21.81;70.48
163;BME280;3946;48.958;8.284;2023-09-30T11:00:38;101411.91;;;21.84;71.41
163;BME280;3946;48.958;8.284;2023-09-30T11:03:25;101390.69;;;21.76;69.88
163;BME280;3946;48.958;8.284;2023-09-30T11:06:15;101384.81;;;21.55;71.28
163;BME280;3946;48.958;8.284;2023-09-30T11:09:03;101391.91;;;21.91;70.65
163;BME280;3946;48.958;8.284;2023-09-30T11:11:48;101396.38;;;21.81;70.64
163;BME280;3946;48.958;8.284;2023-09-30T11:14:33;101382.84;;;22.04;69.02
163;BME280;3946;48.958;8.284;2023-09-30T11:17:21;101370.47;;;22.04;69.08
163;BME280;3946;48.958;8.284;2023-09-30T11:20:07;101374.31;;;22.10;68.66
163;BME280;3946;48.958;8.284;2023-09-30T11:22:55;101380.34;;;22.02;68.86
163;BME280;3946;48.958;8.284;2023-09-30T11:25:40;101374.06;;;22.30;67.16
163;BME280;3946;48.958;8.284;2023-09-30T11:28:35;101378.19;;;22.15;67.79
163;BME280;3946;48.958;8.284;2023-09-30T11:31:20;101369.09;;;22.00;67.74
163;BME280;3946;48.958;8.284;2023-09-30T11:34:05;101364.28;;;22.13;67.15
163;BME280;3946;48.958;8.284;2023-09-30T11:36:51;101377.78;;;22.38;67.17
163;BME280;3946;48.958;8.284;2023-09-30T11:39:38;101377.88;;;22.18;67.30
163;BME280;3946;48.958;8.284;2023-09-30T11:42:24;101377.41;;;22.05;68.20
163;BME280;3946;48.958;8.284;2023-09-30T11:45:18;101360.97;;;22.56;66.03
163;BME280;3946;48.958;8.284;2023-09-30T11:48:15;101359.31;;;22.55;64.76
163;BME280;3946;48.958;8.284;2023-09-30T11:51:00;101365.72;;;22.53;65.01
163;BME280;3946;48.958;8.284;2023-09-30T11:53:46;101369.19;;;22.53;65.03
163;BME280;3946;48.958;8.284;2023-09-30T11:56:32;101367.38;;;22.36;64.45
163;BME280;3946;48.958;8.284;2023-09-30T11:59:21;101354.13;;;22.18;63.74
163;BME280;3946;48.958;8.284;2023-09-30T12:02:06;101356.81;;;22.54;63.54
163;BME280;3946;48.958;8.284;2023-09-30T12:04:52;101351.78;;;22.78;63.35
163;BME280;3946;48.958;8.284;2023-09-30T12:07:38;101334.34;;;23.11;61.91
163;BME280;3946;48.958;8.284;2023-09-30T12:10:25;101334.41;;;23.19;61.22
163;BME280;3946;48.958;8.284;2023-09-30T12:13:11;101309.09;;;23.17;59.15
163;BME280;3946;48.958;8.284;2023-09-30T12:15:58;101341.97;;;22.88;61.85
163;BME280;3946;48.958;8.284;2023-09-30T12:18:45;101314.44;;;22.99;59.69
163;BME280;3946;48.958;8.284;2023-09-30T12:21:34;101291.16;;;23.02;56.74
163;BME280;3946;48.958;8.284;2023-09-30T12:24:20;101302.13;;;22.90;56.05
163;BME280;3946;48.958;8.284;2023-09-30T12:27:07;101287.78;;;22.75;53.58
163;BME280;3946;48.958;8.284;2023-09-30T12:29:53;101281.88;;;22.98;52.73
163;BME280;3946;48.958;8.284;2023-09-30T12:32:39;101297.78;;;22.81;53.82
163;BME280;3946;48.958;8.284;2023-09-30T12:35:24;101294.59;;;22.42;53.98
163;BME280;3946;48.958;8.284;2023-09-30T12:38:09;101302.06;;;22.64;54.31
163;BME280;3946;48.958;8.284;2023-09-30T12:40:54;101294.25;;;22.54;54.10
163;BME280;3946;48.958;8.284;2023-09-30T12:43:40;101299.44;;;22.82;54.57
163;BME280;3946;48.958;8.284;2023-09-30T12:46:27;101312.28;;;22.77;56.56
163;BME280;3946;48.958;8.284;2023-09-30T12:49:12;101290.69;;;23.07;54.26
163;BME280;3946;48.958;8.284;2023-09-30T12:51:57;101284.06;;;23.03;54.16
163;BME280;3946;48.958;8.284;2023-09-30T12:54:42;101290.50;;;23.00;53.63
163;BME280;3946;48.958;8.284;2023-09-30T12:57:27;101290.13;;;22.60;55.83
163;BME280;3946;48.958;8.284;2023-09-30T13:00:12;101283.97;;;22.87;55.69
163;BME280;3946;48.958;8.284;2023-09-30T13:03:01;101274.66;;;22.83;54.89
163;BME280;3946;48.958;8.284;2023-09-30T13:05:46;101272.47;;;22.78;54.64
163;BME280;3946;48.958;8.284;2023-09-30T13:08:31;101274.41;;;22.94;55.73
163;BME280;3946;48.958;8.284;2023-09-30T13:11:17;101258.63;;;23.02;54.32
163;BME280;3946;48.958;8.284;2023-09-30T13:14:02;101267.22;;;23.04;54.52
163;BME280;3946;48.958;8.284;2023-09-30T13:16:47;101261.25;;;23.02;54.13
163;BME280;3946;48.958;8.284;2023-09-30T13:19:33;101273.13;;;22.98;54.82
163;BME280;3946;48.958;8.284;2023-09-30T13:22:18;101273.06;;;22.90;55.20
163;BME280;3946;48.958;8.284;2023-09-30T13:25:03;101278.94;;;23.01;54.71
163;BME280;3946;48.958;8.284;2023-09-30T13:27:48;101279.81;;;23.10;54.95
163;BME280;3946;48.958;8.284;2023-09-30T13:30:33;101286.56;;;23.05;55.60
163;BME280;3946;48.958;8.284;2023-09-30T13:33:19;101284.47;;;23.16;55.07
163;BME280;3946;48.958;8.284;2023-09-30T13:36:06;101271.00;;;23.01;54.21
163;BME280;3946;48.958;8.284;2023-09-30T13:38:51;101281.16;;;22.88;54.65
163;BME280;3946;48.958;8.284;2023-09-30T13:41:36;101297.84;;;22.89;55.56
163;BME280;3946;48.958;8.284;2023-09-30T13:44:21;101288.25;;;22.88;56.35
163;BME280;3946;48.958;8.284;2023-09-30T13:47:06;101289.28;;;22.95;56.14
163;BME280;3946;48.958;8.284;2023-09-30T13:49:52;101287.88;;;23.34;57.09
163;BME280;3946;48.958;8.284;2023-09-30T13:52:39;101289.06;;;23.40;57.33
163;BME280;3946;48.958;8.284;2023-09-30T13:55:24;101260.63;;;23.42;54.98
163;BME280;3946;48.958;8.284;2023-09-30T13:58:09;101267.66;;;23.51;55.22
163;BME280;3946;48.958;8.284;2023-09-30T14:00:53;101251.38;;;23.04;54.86
163;BME280;3946;48.958;8.284;2023-09-30T14:03:40;101258.63;;;23.02;56.32
163;BME280;3946;48.958;8.284;2023-09-30T14:06:25;101247.31;;;23.18;55.19
163;BME280;3946;48.958;8.284;2023-09-30T14:09:14;101238.47;;;23.09;54.91
163;BME280;3946;48.958;8.284;2023-09-30T14:11:59;101237.06;;;23.23;54.74
163;BME280;3946;48.958;8.284;2023-09-30T14:14:44;101253.41;;;23.18;57.00
163;BME280;3946;48.958;8.284;2023-09-30T14:17:29;101225.59;;;23.48;54.83
163;BME280;3946;48.958;8.284;2023-09-30T14:20:14;101215.56;;;23.52;53.12
163;BME280;3946;48.958;8.284;2023-09-30T14:22:59;101219.66;;;23.46;53.44
163;BME280;3946;48.958;8.284;2023-09-30T14:25:47;101207.13;;;23.56;53.26
163;BME280;3946;48.958;8.284;2023-09-30T14:28:32;101200.28;;;23.46;52.26
163;BME280;3946;48.958;8.284;2023-09-30T14:31:17;101204.91;;;23.44;52.60
163;BME280;3946;48.958;8.284;2023-09-30T14:34:02;101192.34;;;23.37;53.24
163;BME280;3946;48.958;8.284;2023-09-30T14:36:48;101205.75;;;23.10;53.46
163;BME280;3946;48.958;8.284;2023-09-30T14:39:32;101213.53;;;23.12;55.34
163;BME280;3946;48.958;8.284;2023-09-30T14:42:19;101204.25;;;23.08;54.76
163;BME280;3946;48.958;8.284;2023-09-30T14:45:04;101217.31;;;23.01;55.85
163;BME280;3946;48.958;8.284;2023-09-30T14:47:49;101219.88;;;22.93;55.85
163;BME280;3946;48.958;8.284;2023-09-30T14:50:34;101228.50;;;22.95;55.72
163;BME280;3946;48.958;8.284;2023-09-30T14:53:20;101222.66;;;22.83;56.06
163;BME280;3946;48.958;8.284;2023-09-30T14:56:14;101218.72;;;22.69;55.40
163;BME280;3946;48.958;8.284;2023-09-30T14:59:00;101232.25;;;22.66;56.27
163;BME280;3946;48.958;8.284;2023-09-30T15:01:46;101233.00;;;22.59;56.22